createdAt,value
2018-05-04T00:00:57.834Z,101532.55
2018-05-04T00:03:26.247Z,101536.59
2018-05-04T00:05:54.666Z,101535.70
2018-05-04T00:08:23.076Z,101532.67
2018-05-04T00:10:52.253Z,101531.66
2018-05-04T00:13:20.649Z,101530.86
2018-05-04T00:15:49.806Z,101534.22
2018-05-04T00:18:18.173Z,101536.43
2018-05-04T00:20:46.574Z,101538.80
2018-05-04T00:23:15.837Z,101541.44
2018-05-04T00:25:45.043Z,101550.14
2018-05-04T00:28:13.424Z,101547.12
2018-05-04T00:30:41.834Z,101549.61
2018-05-04T00:33:12.104Z,101552.22
2018-05-04T00:35:40.541Z,101558.14
2018-05-04T00:38:09.036Z,101553.80
2018-05-04T00:40:38.230Z,101552.04
2018-05-04T00:43:07.218Z,101557.38
2018-05-04T00:45:36.478Z,101556.55
2018-05-04T00:48:05.974Z,101549.60
2018-05-04T00:50:34.499Z,101547.06
2018-05-04T00:53:02.898Z,101549.13
2018-05-04T00:55:31.354Z,101552.03
2018-05-04T00:58:00.536Z,101561.16
2018-05-04T01:00:28.921Z,101565.11
2018-05-04T01:02:57.330Z,101558.93
2018-05-04T01:05:25.760Z,101558.58
2018-05-04T01:07:54.145Z,101558.28
2018-05-04T01:10:22.908Z,101567.52
2018-05-04T01:12:51.322Z,101572.05
2018-05-04T01:15:19.721Z,101577.34
2018-05-04T01:17:48.106Z,101582.25
2018-05-04T01:20:16.604Z,101583.63
2018-05-04T01:22:45.779Z,101591.61
2018-05-04T01:25:14.188Z,101589.97
2018-05-04T01:27:43.354Z,101601.41
2018-05-04T01:30:12.502Z,101607.86
2018-05-04T01:32:41.715Z,101602.23
2018-05-04T01:35:10.089Z,101603.55
2018-05-04T01:37:38.695Z,101604.62
2018-05-04T01:40:07.090Z,101604.20
2018-05-04T01:42:35.465Z,101600.50
2018-05-04T01:45:03.867Z,101599.27
2018-05-04T01:47:32.275Z,101601.66
2018-05-04T01:50:00.682Z,101594.96
2018-05-04T01:52:29.833Z,101591.69
2018-05-04T01:54:58.209Z,101589.58
2018-05-04T01:57:26.611Z,101592.84
2018-05-04T01:59:55.008Z,101594.55
2018-05-04T02:02:23.397Z,101601.47
2018-05-04T02:04:51.786Z,101605.45
2018-05-04T02:07:20.191Z,101606.27
2018-05-04T02:09:48.622Z,101606.45
2018-05-04T02:12:17.009Z,101612.30
2018-05-04T02:14:45.397Z,101605.69
2018-05-04T02:17:13.794Z,101610.34
2018-05-04T02:19:42.278Z,101607.77
2018-05-04T02:22:10.678Z,101609.40
2018-05-04T02:24:39.840Z,101605.33
2018-05-04T02:27:09.007Z,101607.64
2018-05-04T02:29:37.377Z,101609.09
2018-05-04T02:32:06.087Z,101607.40
2018-05-04T02:34:34.466Z,101604.90
2018-05-04T02:37:02.868Z,101605.89
2018-05-04T02:39:31.311Z,101612.59
2018-05-04T02:42:00.494Z,101617.20
2018-05-04T02:44:28.908Z,101623.03
2018-05-04T02:46:57.303Z,101612.67
2018-05-04T02:49:25.791Z,101616.33
2018-05-04T02:51:54.274Z,101618.56
2018-05-04T02:54:22.726Z,101618.59
2018-05-04T02:56:51.918Z,101614.83
2018-05-04T02:59:21.061Z,101610.84
2018-05-04T03:01:49.462Z,101606.91
2018-05-04T03:04:17.875Z,101608.33
2018-05-04T03:06:46.290Z,101603.56
2018-05-04T03:09:15.448Z,101605.69
2018-05-04T03:11:43.810Z,101598.21
2018-05-04T03:14:12.186Z,101600.85
2018-05-04T03:16:40.665Z,101597.44
2018-05-04T03:19:09.050Z,101597.67
2018-05-04T03:21:37.435Z,101597.02
2018-05-04T03:24:05.820Z,101602.27
2018-05-04T03:26:34.216Z,101599.84
2018-05-04T03:29:02.620Z,101598.11
2018-05-04T03:31:30.989Z,101595.80
2018-05-04T03:33:59.397Z,101599.63
2018-05-04T03:36:27.770Z,101588.28
2018-05-04T03:38:56.182Z,101586.97
2018-05-04T03:41:24.602Z,101581.38
2018-05-04T03:43:53.005Z,101584.16
2018-05-04T03:46:22.173Z,101586.55
2018-05-04T03:48:51.469Z,101591.52
2018-05-04T03:51:19.893Z,101595.95
2018-05-04T03:53:48.375Z,101594.58
2018-05-04T03:56:16.888Z,101602.30
2018-05-04T03:59:02.842Z,101598.88
2018-05-04T04:01:48.783Z,101596.24
2018-05-04T04:04:17.403Z,101595.63
2018-05-04T04:06:45.790Z,101591.91
2018-05-04T04:09:14.213Z,101592.03
2018-05-04T04:11:42.596Z,101595.61
2018-05-04T04:14:10.973Z,101592.64
2018-05-04T04:16:39.345Z,101595.45
2018-05-04T04:19:07.706Z,101599.67
2018-05-04T04:21:36.077Z,101597.28
2018-05-04T04:24:04.475Z,101600.08
2018-05-04T04:26:32.939Z,101602.21
2018-05-04T04:29:01.317Z,101603.67
2018-05-04T04:31:29.691Z,101603.74
2018-05-04T04:33:58.110Z,101598.81
2018-05-04T04:36:26.734Z,101612.41
2018-05-04T04:38:55.174Z,101619.77
2018-05-04T04:41:24.305Z,101616.92
2018-05-04T04:43:52.686Z,101613.68
2018-05-04T04:46:22.103Z,101613.58
2018-05-04T04:48:51.614Z,101616.66
2018-05-04T04:51:20.098Z,101621.41
2018-05-04T04:53:49.300Z,101628.03
2018-05-04T04:56:19.346Z,101626.68
2018-05-04T04:58:48.639Z,101639.72
2018-05-04T05:01:17.829Z,101633.24
2018-05-04T05:03:46.719Z,101641.09
2018-05-04T05:06:16.693Z,101644.10
2018-05-04T05:08:45.087Z,101645.64
2018-05-04T05:11:15.235Z,101639.69
2018-05-04T05:13:45.350Z,101646.19
2018-05-04T05:16:13.802Z,101648.83
2018-05-04T05:18:42.288Z,101645.97
2018-05-04T05:21:11.082Z,101649.59
2018-05-04T05:23:39.560Z,101649.86
2018-05-04T05:26:07.889Z,101655.41
2018-05-04T05:28:36.330Z,101649.66
2018-05-04T05:31:04.754Z,101651.34
2018-05-04T05:33:33.147Z,101655.87
2018-05-04T05:36:01.543Z,101658.53
2018-05-04T05:38:30.726Z,101661.83
2018-05-04T05:40:59.118Z,101663.47
2018-05-04T05:43:27.530Z,101662.62
2018-05-04T05:45:55.925Z,101663.11
2018-05-04T05:48:24.394Z,101667.56
2018-05-04T05:50:52.827Z,101671.94
2018-05-04T05:53:21.238Z,101670.29
2018-05-04T05:55:49.635Z,101674.13
2018-05-04T05:58:18.794Z,101675.66
2018-05-04T06:00:47.987Z,101686.98
2018-05-04T06:03:16.374Z,101684.33
2018-05-04T06:05:44.807Z,101683.35
2018-05-04T06:08:13.984Z,101677.95
2018-05-04T06:10:42.386Z,101673.72
2018-05-04T06:13:11.561Z,101672.81
2018-05-04T06:15:39.962Z,101672.94
2018-05-04T06:18:09.209Z,101682.36
2018-05-04T06:20:37.634Z,101681.93
2018-05-04T06:23:06.028Z,101682.94
2018-05-04T06:25:35.198Z,101681.27
2018-05-04T06:28:03.634Z,101678.87
2018-05-04T06:30:32.038Z,101682.09
2018-05-04T06:33:00.471Z,101680.89
2018-05-04T06:35:29.870Z,101676.34
2018-05-04T06:37:58.335Z,101684.69
2018-05-04T06:40:26.764Z,101685.45
2018-05-04T06:42:56.147Z,101688.66
2018-05-04T06:45:24.694Z,101688.77
2018-05-04T06:47:53.122Z,101683.44
2018-05-04T06:50:21.526Z,101681.20
2018-05-04T06:52:50.754Z,101676.02
2018-05-04T06:55:19.186Z,101673.81
2018-05-04T06:57:47.597Z,101677.06
2018-05-04T07:00:16.755Z,101678.61
2018-05-04T07:02:45.139Z,101673.97
2018-05-04T07:05:13.570Z,101667.31
2018-05-04T07:07:42.730Z,101670.97
2018-05-04T07:10:12.611Z,101667.33
2018-05-04T07:12:40.993Z,101663.74
2018-05-04T07:15:09.412Z,101665.77
2018-05-04T07:17:37.787Z,101670.64
2018-05-04T07:20:06.154Z,101667.53
2018-05-04T07:22:34.582Z,101671.64
2018-05-04T07:25:02.969Z,101679.92
2018-05-04T07:27:31.351Z,101670.55
2018-05-04T07:29:59.762Z,101659.92
2018-05-04T07:32:28.162Z,101654.68
2018-05-04T07:34:56.550Z,101649.59
2018-05-04T07:37:24.975Z,101653.48
2018-05-04T07:39:53.675Z,101652.00
2018-05-04T07:42:22.098Z,101662.14
2018-05-04T07:44:50.754Z,101667.61
2018-05-04T07:47:19.129Z,101660.47
2018-05-04T07:49:47.542Z,101661.19
2018-05-04T07:52:15.992Z,101659.64
2018-05-04T07:54:44.382Z,101651.77
2018-05-04T07:57:12.770Z,101653.95
2018-05-04T07:59:41.952Z,101656.81
2018-05-04T08:02:10.506Z,101653.04
2018-05-04T08:04:38.902Z,101652.28
2018-05-04T08:07:07.318Z,101652.41
2018-05-04T08:09:35.724Z,101659.73
2018-05-04T08:12:05.052Z,101659.61
2018-05-04T08:14:33.489Z,101661.83
2018-05-04T08:17:01.899Z,101660.20
2018-05-04T08:19:30.313Z,101668.09
2018-05-04T08:21:58.726Z,101662.53
2018-05-04T08:24:27.109Z,101665.91
2018-05-04T08:26:57.023Z,101660.38
2018-05-04T08:29:25.441Z,101666.59
2018-05-04T08:31:53.822Z,101655.30
2018-05-04T08:34:22.977Z,101671.67
2018-05-04T08:36:51.366Z,101670.20
2018-05-04T08:41:48.219Z,101664.39
2018-05-04T08:44:16.645Z,101655.86
2018-05-04T08:46:45.855Z,101656.39
2018-05-04T08:49:14.221Z,101656.41
2018-05-04T08:51:42.610Z,101654.52
2018-05-04T08:54:11.008Z,101662.19
2018-05-04T08:56:40.211Z,101657.39
2018-05-04T08:59:09.418Z,101652.71
2018-05-04T09:01:38.613Z,101654.09
2018-05-04T09:04:07.774Z,101651.33
2018-05-04T09:06:36.154Z,101645.52
2018-05-04T09:09:04.610Z,101640.78
2018-05-04T09:11:32.998Z,101644.02
2018-05-04T09:14:01.415Z,101644.65
2018-05-04T09:16:29.801Z,101630.92
2018-05-04T09:18:58.181Z,101635.98
2018-05-04T09:21:26.590Z,101632.00
2018-05-04T09:23:55.742Z,101632.30
2018-05-04T09:26:24.133Z,101629.28
2018-05-04T09:28:52.513Z,101634.41
2018-05-04T09:31:20.914Z,101632.03
2018-05-04T09:33:49.324Z,101631.05
2018-05-04T09:36:18.487Z,101626.84
2018-05-04T09:38:46.882Z,101628.14
2018-05-04T09:41:15.283Z,101628.73
2018-05-04T09:43:43.746Z,101630.08
2018-05-04T09:46:12.927Z,101634.83
2018-05-04T09:48:41.392Z,101631.38
2018-05-04T09:51:09.762Z,101626.73
2018-05-04T09:53:38.933Z,101632.92
2018-05-04T09:56:07.337Z,101628.64
2018-05-04T09:58:36.491Z,101629.67
2018-05-04T10:01:04.871Z,101619.44
2018-05-04T10:03:33.331Z,101609.30
2018-05-04T10:06:01.677Z,101606.83
2018-05-04T10:08:31.122Z,101607.05
2018-05-04T10:10:59.561Z,101602.17
2018-05-04T10:13:27.958Z,101595.56
2018-05-04T10:15:57.108Z,101599.21
2018-05-04T10:18:25.498Z,101596.69
2018-05-04T10:20:53.899Z,101596.80
2018-05-04T10:23:22.305Z,101588.29
2018-05-04T10:25:51.467Z,101592.44
2018-05-04T10:28:19.854Z,101589.28
2018-05-04T10:30:48.261Z,101592.45
2018-05-04T10:33:16.747Z,101585.23
2018-05-04T10:35:45.134Z,101588.48
2018-05-04T10:38:14.597Z,101572.24
2018-05-04T10:40:42.970Z,101586.88
2018-05-04T10:43:11.334Z,101581.88
2018-05-04T10:45:39.837Z,101578.70
2018-05-04T10:48:08.294Z,101575.97
2018-05-04T10:50:37.489Z,101584.16
2018-05-04T10:53:06.658Z,101580.07
2018-05-04T10:55:35.100Z,101579.89
2018-05-04T10:58:03.504Z,101576.13
2018-05-04T11:00:31.921Z,101571.20
2018-05-04T11:03:00.297Z,101572.41
2018-05-04T11:05:28.903Z,101571.59
2018-05-04T11:07:58.009Z,101571.17
2018-05-04T11:10:26.450Z,101574.83
2018-05-04T11:12:54.878Z,101577.70
2018-05-04T11:15:23.274Z,101571.54
2018-05-04T11:17:52.454Z,101567.23
2018-05-04T11:20:20.950Z,101564.12
2018-05-04T11:22:49.329Z,101554.65
2018-05-04T11:25:17.835Z,101555.89
2018-05-04T11:27:46.205Z,101556.51
2018-05-04T11:30:14.686Z,101556.88
2018-05-04T11:32:43.860Z,101558.30
2018-05-04T11:35:12.277Z,101554.50
2018-05-04T11:37:41.438Z,101553.12
2018-05-04T11:40:09.858Z,101558.02
2018-05-04T11:42:39.051Z,101551.71
2018-05-04T11:45:07.579Z,101551.95
2018-05-04T11:47:36.267Z,101555.69
2018-05-04T11:50:05.059Z,101553.03
2018-05-04T11:52:33.480Z,101561.69
2018-05-04T11:55:01.894Z,101552.34
2018-05-04T11:57:32.023Z,101547.91
2018-05-04T12:00:01.254Z,101552.56
2018-05-04T12:02:29.658Z,101543.42
2018-05-04T12:04:58.026Z,101546.02
2018-05-04T12:07:26.463Z,101550.95
2018-05-04T12:09:54.903Z,101552.28
2018-05-04T12:12:23.315Z,101549.75
2018-05-04T12:14:51.747Z,101556.73
2018-05-04T12:17:20.159Z,101553.90
2018-05-04T12:19:49.321Z,101551.54
2018-05-04T12:22:18.493Z,101546.95
2018-05-04T12:24:46.929Z,101540.62
2018-05-04T12:27:15.303Z,101549.11
2018-05-04T12:29:43.738Z,101548.17
2018-05-04T12:32:12.155Z,101551.99
2018-05-04T12:34:40.615Z,101544.37
2018-05-04T12:37:09.067Z,101545.00
2018-05-04T12:39:37.441Z,101542.99
2018-05-04T12:42:05.917Z,101542.22
2018-05-04T12:44:34.349Z,101547.50
2018-05-04T12:47:02.803Z,101543.28
2018-05-04T12:49:32.269Z,101541.52
2018-05-04T12:52:01.458Z,101548.48
2018-05-04T12:54:29.866Z,101547.16
2018-05-04T12:56:58.330Z,101549.66
2018-05-04T12:59:27.514Z,101553.17
2018-05-04T13:01:56.188Z,101542.20
2018-05-04T13:04:24.545Z,101541.01
2018-05-04T13:06:52.950Z,101537.16
2018-05-04T13:09:22.886Z,101544.44
2018-05-04T13:11:52.127Z,101544.78
2018-05-04T13:14:20.521Z,101538.94
2018-05-04T13:16:48.998Z,101537.86
2018-05-04T13:19:17.577Z,101538.16
2018-05-04T13:21:46.761Z,101529.35
2018-05-04T13:24:15.963Z,101535.02
2018-05-04T13:26:46.080Z,101534.28
2018-05-04T13:29:15.394Z,101532.92
2018-05-04T13:31:46.521Z,101532.86
2018-05-04T13:34:15.749Z,101531.67
2018-05-04T13:36:46.001Z,101515.95
2018-05-04T13:39:15.402Z,101518.59
2018-05-04T13:41:43.789Z,101515.98
2018-05-04T13:44:12.236Z,101517.04
2018-05-04T13:46:40.666Z,101518.61
2018-05-04T13:49:09.486Z,101518.48
2018-05-04T13:51:38.082Z,101519.75
2018-05-04T13:54:06.391Z,101518.46
2018-05-04T13:56:35.635Z,101515.70
2018-05-04T13:59:04.028Z,101517.51
2018-05-04T14:01:32.730Z,101517.30
2018-05-04T14:04:01.155Z,101512.38
2018-05-04T14:06:30.323Z,101509.01
2018-05-04T14:08:58.744Z,101504.85
2018-05-04T14:11:27.925Z,101498.39
2018-05-04T14:13:57.251Z,101504.89
2018-05-04T14:16:26.445Z,101500.04
2018-05-04T14:18:55.602Z,101508.20
2018-05-04T14:21:24.079Z,101502.52
2018-05-04T14:23:52.927Z,101497.28
2018-05-04T14:26:22.099Z,101509.69
2018-05-04T14:28:51.319Z,101504.28
2018-05-04T14:31:20.538Z,101494.54
2018-05-04T14:33:49.730Z,101503.58
2018-05-04T14:36:18.145Z,101497.63
2018-05-04T14:38:46.546Z,101502.19
2018-05-04T14:41:14.963Z,101489.16
2018-05-04T14:43:43.374Z,101495.42
2018-05-04T14:46:12.803Z,101495.63
2018-05-04T14:48:41.203Z,101507.02
2018-05-04T14:51:09.600Z,101503.33
2018-05-04T14:53:38.362Z,101506.70
2018-05-04T14:56:06.782Z,101508.80
2018-05-04T14:58:35.193Z,101508.27
2018-05-04T15:01:03.665Z,101507.39
2018-05-04T15:03:32.264Z,101508.37
2018-05-04T15:06:00.648Z,101505.78
2018-05-04T15:08:29.839Z,101511.68
2018-05-04T15:10:58.222Z,101498.69
2018-05-04T15:13:26.630Z,101505.20
2018-05-04T15:15:56.111Z,101506.42
2018-05-04T15:18:25.201Z,101504.20
2018-05-04T15:20:53.608Z,101506.25
2018-05-04T15:23:22.018Z,101502.71
2018-05-04T15:25:50.438Z,101497.94
2018-05-04T15:28:18.902Z,101509.39
2018-05-04T15:30:47.321Z,101508.96
2018-05-04T15:33:15.782Z,101506.55
2018-05-04T15:35:44.191Z,101506.94
2018-05-04T15:38:12.626Z,101506.86
2018-05-04T15:40:41.043Z,101508.13
2018-05-04T15:43:09.528Z,101510.51
2018-05-04T15:45:38.256Z,101512.37
2018-05-04T15:48:12.883Z,101512.48
2018-05-04T15:50:46.891Z,101517.95
2018-05-04T15:53:15.418Z,101510.27
2018-05-04T15:55:43.853Z,101510.55
2018-05-04T15:58:12.258Z,101516.47
2018-05-04T16:00:42.379Z,101522.58
2018-05-04T16:03:10.774Z,101522.45
2018-05-04T16:05:39.967Z,101517.56
2018-05-04T16:08:09.142Z,101524.05
2018-05-04T16:10:37.555Z,101519.43
2018-05-04T16:13:06.724Z,101511.86
2018-05-04T16:15:35.134Z,101515.13
2018-05-04T16:18:04.402Z,101510.75
2018-05-04T16:20:32.809Z,101509.56
2018-05-04T16:23:01.699Z,101514.84
2018-05-04T16:25:30.086Z,101513.48
2018-05-04T16:27:58.578Z,101520.25
2018-05-04T16:30:27.015Z,101523.47
2018-05-04T16:32:55.465Z,101517.03
2018-05-04T16:35:24.629Z,101521.80
2018-05-04T16:37:53.031Z,101521.69
2018-05-04T16:40:21.436Z,101518.97
2018-05-04T16:42:50.613Z,101523.20
2018-05-04T16:45:19.026Z,101515.88
2018-05-04T16:47:52.869Z,101520.83
2018-05-04T16:50:21.283Z,101520.95
2018-05-04T16:52:50.446Z,101524.77
2018-05-04T16:55:18.860Z,101528.52
2018-05-04T16:57:47.327Z,101523.97
2018-05-04T17:00:15.745Z,101528.70
2018-05-04T17:02:44.129Z,101534.10
2018-05-04T17:05:13.416Z,101540.00
2018-05-04T17:07:41.800Z,101538.33
2018-05-04T17:10:10.205Z,101547.05
2018-05-04T17:12:40.180Z,101546.36
2018-05-04T17:15:08.627Z,101560.36
2018-05-04T17:17:37.033Z,101552.97
2018-05-04T17:20:05.434Z,101547.45
2018-05-04T17:22:34.089Z,101555.75
2018-05-04T17:25:02.634Z,101552.35
2018-05-04T17:27:31.125Z,101556.02
2018-05-04T17:29:59.552Z,101558.70
2018-05-04T17:32:27.971Z,101562.80
2018-05-04T17:34:56.461Z,101556.83
2018-05-04T17:37:25.666Z,101562.27
2018-05-04T17:39:54.078Z,101560.14
2018-05-04T17:42:23.266Z,101568.16
2018-05-04T17:44:51.702Z,101570.72
2018-05-04T17:47:20.281Z,101566.00
2018-05-04T17:49:49.663Z,101564.21
2018-05-04T17:52:18.122Z,101563.38
2018-05-04T17:54:46.562Z,101570.09
2018-05-04T17:57:15.043Z,101564.42
2018-05-04T17:59:43.556Z,101569.40
2018-05-04T18:02:12.769Z,101571.55
2018-05-04T18:04:41.940Z,101574.62
2018-05-04T18:07:11.301Z,101583.86
2018-05-04T18:09:39.733Z,101581.70
2018-05-04T18:12:08.163Z,101585.64
2018-05-04T18:14:36.590Z,101583.96
2018-05-04T18:17:05.114Z,101587.49
2018-05-04T18:19:34.059Z,101592.34
2018-05-04T18:22:02.508Z,101589.74
2018-05-04T18:24:30.923Z,101594.05
2018-05-04T18:27:00.140Z,101600.31
2018-05-04T18:29:28.568Z,101602.06
2018-05-04T18:31:56.948Z,101604.72
2018-05-04T18:34:25.370Z,101607.40
2018-05-04T18:36:54.571Z,101613.09
2018-05-04T18:39:23.826Z,101610.44
2018-05-04T18:41:52.255Z,101615.24
2018-05-04T18:47:00.438Z,101617.84
2018-05-04T18:49:28.914Z,101618.73
2018-05-04T18:51:57.378Z,101623.52
2018-05-04T18:54:25.819Z,101625.23
2018-05-04T18:56:54.226Z,101627.88
2018-05-04T18:59:24.326Z,101634.83
2018-05-04T19:01:53.512Z,101635.22
2018-05-04T19:04:21.965Z,101648.70
2018-05-04T19:06:50.392Z,101652.50
2018-05-04T19:09:18.801Z,101653.38
2018-05-04T19:11:47.228Z,101660.37
2018-05-04T19:14:15.661Z,101665.17
2018-05-04T19:16:44.916Z,101666.03
2018-05-04T19:19:13.366Z,101668.08
2018-05-04T19:21:41.807Z,101672.96
2018-05-04T19:24:10.219Z,101677.81
2018-05-04T19:26:39.407Z,101680.45
2018-05-04T19:29:07.878Z,101685.13
2018-05-04T19:31:36.252Z,101689.10
2018-05-04T19:34:04.717Z,101686.45
2018-05-04T19:36:33.129Z,101692.52
2018-05-04T19:39:01.564Z,101694.21
2018-05-04T19:41:29.979Z,101687.84
2018-05-04T19:43:58.449Z,101695.20
2018-05-04T19:46:27.186Z,101695.05
2018-05-04T19:48:55.642Z,101700.14
2018-05-04T19:51:24.053Z,101702.66
2018-05-04T19:53:52.747Z,101706.38
2018-05-04T19:56:21.934Z,101708.69
2018-05-04T19:58:50.402Z,101715.64
2018-05-04T20:01:18.803Z,101717.48
2018-05-04T20:03:47.233Z,101719.05
2018-05-04T20:06:16.001Z,101720.85
2018-05-04T20:08:45.193Z,101723.28
2018-05-04T20:11:13.602Z,101725.37
2018-05-04T20:13:42.004Z,101731.98
2018-05-04T20:16:10.381Z,101729.90
2018-05-04T20:18:38.879Z,101733.83
2018-05-04T20:21:07.355Z,101742.06
2018-05-04T20:23:35.787Z,101737.63
2018-05-04T20:26:04.241Z,101741.12
2018-05-04T20:28:32.717Z,101748.02
2018-05-04T20:31:01.194Z,101756.09
2018-05-04T20:33:29.666Z,101744.70
2018-05-04T20:35:58.198Z,101749.38
2018-05-04T20:38:26.613Z,101754.83
2018-05-04T20:40:55.823Z,101752.86
2018-05-04T20:43:24.265Z,101761.38
2018-05-04T20:45:53.001Z,101757.27
2018-05-04T20:48:25.875Z,101753.00
2018-05-04T20:50:54.380Z,101754.55
2018-05-04T20:53:23.783Z,101756.25
2018-05-04T20:55:52.998Z,101746.75
2018-05-04T20:58:21.429Z,101755.17
2018-05-04T21:00:50.969Z,101756.37
2018-05-04T21:03:20.172Z,101761.22
2018-05-04T21:05:48.714Z,101760.56
2018-05-04T21:08:18.778Z,101763.33
2018-05-04T21:10:47.289Z,101766.31
2018-05-04T21:13:16.436Z,101763.70
2018-05-04T21:15:44.871Z,101766.23
2018-05-04T21:18:13.361Z,101762.64
2018-05-04T21:20:41.816Z,101765.80
2018-05-04T21:23:11.190Z,101765.48
2018-05-04T21:25:39.772Z,101767.36
2018-05-04T21:28:08.256Z,101762.61
2018-05-04T21:30:40.106Z,101762.05
2018-05-04T21:33:08.719Z,101758.09
2018-05-04T21:35:37.131Z,101753.91
2018-05-04T21:38:06.324Z,101754.11
2018-05-04T21:40:35.502Z,101749.93
2018-05-04T21:43:03.914Z,101761.22
2018-05-04T21:45:33.098Z,101763.49
2018-05-04T21:48:01.521Z,101759.42
2018-05-04T21:50:30.159Z,101757.64
2018-05-04T21:52:58.572Z,101756.52
2018-05-04T21:55:27.766Z,101766.39
2018-05-04T21:57:56.312Z,101764.94
2018-05-04T22:00:24.808Z,101765.93
2018-05-04T22:02:54.105Z,101770.60
2018-05-04T22:05:22.514Z,101771.81
2018-05-04T22:07:54.944Z,101767.66
2018-05-04T22:10:23.590Z,101764.77
2018-05-04T22:12:53.686Z,101767.61
2018-05-04T22:15:23.912Z,101767.11
2018-05-04T22:17:52.394Z,101773.34
2018-05-04T22:20:20.808Z,101769.64
2018-05-04T22:22:53.621Z,101771.38
2018-05-04T22:25:27.793Z,101775.17
2018-05-04T22:28:04.379Z,101777.37
2018-05-04T22:30:33.858Z,101776.25
2018-05-04T22:33:03.676Z,101775.21
2018-05-04T22:35:32.513Z,101776.14
2018-05-04T22:38:01.932Z,101783.61
2018-05-04T22:40:31.006Z,101786.77
2018-05-04T22:43:00.221Z,101793.31
2018-05-04T22:45:28.732Z,101789.83
2018-05-04T22:47:57.157Z,101786.98
2018-05-04T22:50:25.586Z,101787.43
2018-05-04T22:52:54.230Z,101782.88
2018-05-04T22:55:22.711Z,101789.98
2018-05-04T22:57:51.849Z,101794.01
2018-05-04T23:00:24.598Z,101787.77
2018-05-04T23:02:53.010Z,101791.42
2018-05-04T23:05:22.204Z,101794.80
2018-05-04T23:07:51.300Z,101793.65
2018-05-04T23:10:20.514Z,101796.80
2018-05-04T23:12:49.742Z,101793.36
2018-05-04T23:15:18.436Z,101799.18
2018-05-04T23:17:47.213Z,101797.38
2018-05-04T23:20:15.681Z,101801.19
2018-05-04T23:22:44.858Z,101802.22
2018-05-04T23:25:13.283Z,101805.01
2018-05-04T23:27:41.687Z,101797.52
2018-05-04T23:30:10.423Z,101803.77
2018-05-04T23:32:38.939Z,101804.66
2018-05-04T23:35:07.357Z,101814.70
2018-05-04T23:37:35.782Z,101815.20
2018-05-04T23:40:04.939Z,101816.59
2018-05-04T23:42:33.426Z,101824.12
2018-05-04T23:45:01.860Z,101825.68
2018-05-04T23:47:31.016Z,101825.05
2018-05-04T23:49:59.749Z,101828.18
2018-05-04T23:52:28.962Z,101822.13
2018-05-04T23:54:57.519Z,101821.79
2018-05-04T23:57:25.935Z,101821.82
2018-05-04T23:59:55.116Z,101826.77
